sensor_id;sensor_type;location;lat;lon;timestamp;P1;durP1;ratioP1;P2;durP2;ratioP2
10281;SDS011;5186;59.472;18.048;2023-04-24T00:00:19;1.50;;;1.30;;
10281;SDS011;5186;59.472;18.048;2023-04-24T00:02:47;1.60;;;1.37;;
10281;SDS011;5186;59.472;18.048;2023-04-24T00:05:13;2.13;;;1.20;;
10281;SDS011;5186;59.472;18.048;2023-04-24T00:07:40;1.50;;;1.33;;
10281;SDS011;5186;59.472;18.048;2023-04-24T00:10:06;1.20;;;1.10;;
10281;SDS011;5186;59.472;18.048;2023-04-24T00:12:33;0.80;;;0.80;;
10281;SDS011;5186;59.472;18.048;2023-04-24T00:14:59;1.10;;;1.00;;
10281;SDS011;5186;59.472;18.048;2023-04-24T00:17:24;1.47;;;1.37;;
10281;SDS011;5186;59.472;18.048;2023-04-24T00:19:50;1.10;;;1.00;;
10281;SDS011;5186;59.472;18.048;2023-04-24T00:22:16;0.80;;;0.80;;
10281;SDS011;5186;59.472;18.048;2023-04-24T00:24:42;2.80;;;0.90;;
10281;SDS011;5186;59.472;18.048;2023-04-24T00:27:08;1.63;;;0.80;;
10281;SDS011;5186;59.472;18.048;2023-04-24T00:29:34;0.90;;;0.87;;
10281;SDS011;5186;59.472;18.048;2023-04-24T00:31:59;0.83;;;0.77;;
10281;SDS011;5186;59.472;18.048;2023-04-24T00:34:25;1.27;;;1.07;;
10281;SDS011;5186;59.472;18.048;2023-04-24T00:36:51;1.00;;;0.90;;
10281;SDS011;5186;59.472;18.048;2023-04-24T00:39:20;2.53;;;0.90;;
10281;SDS011;5186;59.472;18.048;2023-04-24T00:41:46;1.00;;;0.70;;
10281;SDS011;5186;59.472;18.048;2023-04-24T00:44:13;0.60;;;0.60;;
10281;SDS011;5186;59.472;18.048;2023-04-24T00:46:39;2.43;;;0.80;;
10281;SDS011;5186;59.472;18.048;2023-04-24T00:49:05;1.50;;;1.10;;
10281;SDS011;5186;59.472;18.048;2023-04-24T00:51:31;1.93;;;0.93;;
10281;SDS011;5186;59.472;18.048;2023-04-24T00:53:58;1.83;;;0.77;;
10281;SDS011;5186;59.472;18.048;2023-04-24T00:56:24;3.97;;;2.33;;
10281;SDS011;5186;59.472;18.048;2023-04-24T00:58:50;1.03;;;0.80;;
10281;SDS011;5186;59.472;18.048;2023-04-24T01:01:17;2.87;;;1.07;;
10281;SDS011;5186;59.472;18.048;2023-04-24T01:03:46;1.10;;;1.00;;
10281;SDS011;5186;59.472;18.048;2023-04-24T01:06:14;1.47;;;0.87;;
10281;SDS011;5186;59.472;18.048;2023-04-24T01:08:40;2.17;;;0.93;;
10281;SDS011;5186;59.472;18.048;2023-04-24T01:11:06;1.50;;;0.97;;
10281;SDS011;5186;59.472;18.048;2023-04-24T01:13:32;3.30;;;0.90;;
10281;SDS011;5186;59.472;18.048;2023-04-24T01:15:59;1.87;;;1.07;;
10281;SDS011;5186;59.472;18.048;2023-04-24T01:18:25;3.30;;;0.97;;
10281;SDS011;5186;59.472;18.048;2023-04-24T01:20:53;3.67;;;1.40;;
10281;SDS011;5186;59.472;18.048;2023-04-24T01:23:22;1.67;;;0.90;;
10281;SDS011;5186;59.472;18.048;2023-04-24T01:25:48;1.53;;;0.90;;
10281;SDS011;5186;59.472;18.048;2023-04-24T01:28:15;1.60;;;1.03;;
10281;SDS011;5186;59.472;18.048;2023-04-24T01:30:41;3.47;;;1.20;;
10281;SDS011;5186;59.472;18.048;2023-04-24T01:33:06;2.00;;;1.07;;
10281;SDS011;5186;59.472;18.048;2023-04-24T01:35:35;3.60;;;1.10;;
10281;SDS011;5186;59.472;18.048;2023-04-24T01:38:02;1.97;;;1.10;;
10281;SDS011;5186;59.472;18.048;2023-04-24T01:40:28;1.73;;;1.10;;
10281;SDS011;5186;59.472;18.048;2023-04-24T01:42:53;2.23;;;1.20;;
10281;SDS011;5186;59.472;18.048;2023-04-24T01:45:20;3.13;;;1.13;;
10281;SDS011;5186;59.472;18.048;2023-04-24T01:47:45;2.57;;;1.20;;
10281;SDS011;5186;59.472;18.048;2023-04-24T01:50:12;3.27;;;1.60;;
10281;SDS011;5186;59.472;18.048;2023-04-24T01:52:40;1.73;;;1.20;;
10281;SDS011;5186;59.472;18.048;2023-04-24T01:55:06;4.30;;;1.70;;
10281;SDS011;5186;59.472;18.048;2023-04-24T01:57:32;2.63;;;1.30;;
10281;SDS011;5186;59.472;18.048;2023-04-24T01:59:58;2.47;;;1.40;;
10281;SDS011;5186;59.472;18.048;2023-04-24T02:02:24;2.70;;;1.57;;
10281;SDS011;5186;59.472;18.048;2023-04-24T02:04:52;2.40;;;1.33;;
10281;SDS011;5186;59.472;18.048;2023-04-24T02:07:18;3.93;;;1.77;;
10281;SDS011;5186;59.472;18.048;2023-04-24T02:09:44;3.07;;;1.53;;
10281;SDS011;5186;59.472;18.048;2023-04-24T02:12:09;3.47;;;1.90;;
10281;SDS011;5186;59.472;18.048;2023-04-24T02:14:35;3.60;;;1.50;;
10281;SDS011;5186;59.472;18.048;2023-04-24T02:17:00;2.50;;;1.50;;
10281;SDS011;5186;59.472;18.048;2023-04-24T02:19:26;2.77;;;1.70;;
10281;SDS011;5186;59.472;18.048;2023-04-24T02:21:52;3.53;;;1.77;;
10281;SDS011;5186;59.472;18.048;2023-04-24T02:24:18;3.20;;;1.63;;
10281;SDS011;5186;59.472;18.048;2023-04-24T02:26:43;3.20;;;1.97;;
10281;SDS011;5186;59.472;18.048;2023-04-24T02:29:11;2.47;;;1.40;;
10281;SDS011;5186;59.472;18.048;2023-04-24T02:31:37;4.17;;;1.97;;
10281;SDS011;5186;59.472;18.048;2023-04-24T02:34:02;3.23;;;1.50;;
10281;SDS011;5186;59.472;18.048;2023-04-24T02:36:28;2.83;;;1.70;;
10281;SDS011;5186;59.472;18.048;2023-04-24T02:38:54;3.57;;;1.50;;
10281;SDS011;5186;59.472;18.048;2023-04-24T02:41:20;3.23;;;1.50;;
10281;SDS011;5186;59.472;18.048;2023-04-24T02:43:45;4.47;;;1.80;;
10281;SDS011;5186;59.472;18.048;2023-04-24T02:46:11;4.03;;;1.97;;
10281;SDS011;5186;59.472;18.048;2023-04-24T02:48:37;4.70;;;2.10;;
10281;SDS011;5186;59.472;18.048;2023-04-24T02:51:02;3.10;;;1.63;;
10281;SDS011;5186;59.472;18.048;2023-04-24T02:53:28;3.87;;;1.60;;
10281;SDS011;5186;59.472;18.048;2023-04-24T02:55:55;2.40;;;1.50;;
10281;SDS011;5186;59.472;18.048;2023-04-24T02:58:21;3.80;;;1.53;;
10281;SDS011;5186;59.472;18.048;2023-04-24T03:00:47;2.93;;;1.53;;
10281;SDS011;5186;59.472;18.048;2023-04-24T03:03:13;1.97;;;1.20;;
10281;SDS011;5186;59.472;18.048;2023-04-24T03:05:40;2.73;;;1.33;;
10281;SDS011;5186;59.472;18.048;2023-04-24T03:08:05;4.13;;;1.77;;
10281;SDS011;5186;59.472;18.048;2023-04-24T03:10:31;3.77;;;1.90;;
10281;SDS011;5186;59.472;18.048;2023-04-24T03:12:57;4.23;;;1.93;;
10281;SDS011;5186;59.472;18.048;2023-04-24T03:15:22;4.27;;;2.00;;
10281;SDS011;5186;59.472;18.048;2023-04-24T03:17:48;3.53;;;1.70;;
10281;SDS011;5186;59.472;18.048;2023-04-24T03:20:14;2.00;;;1.80;;
10281;SDS011;5186;59.472;18.048;2023-04-24T03:22:40;5.53;;;1.80;;
10281;SDS011;5186;59.472;18.048;2023-04-24T03:25:06;2.83;;;1.90;;
10281;SDS011;5186;59.472;18.048;2023-04-24T03:27:34;2.40;;;1.90;;
10281;SDS011;5186;59.472;18.048;2023-04-24T03:29:59;3.37;;;2.03;;
10281;SDS011;5186;59.472;18.048;2023-04-24T03:32:25;3.73;;;1.90;;
10281;SDS011;5186;59.472;18.048;2023-04-24T03:34:51;2.67;;;1.60;;
10281;SDS011;5186;59.472;18.048;2023-04-24T03:37:17;3.83;;;1.40;;
10281;SDS011;5186;59.472;18.048;2023-04-24T03:39:42;3.20;;;1.27;;
10281;SDS011;5186;59.472;18.048;2023-04-24T03:42:08;3.60;;;1.33;;
10281;SDS011;5186;59.472;18.048;2023-04-24T03:44:34;3.73;;;1.47;;
10281;SDS011;5186;59.472;18.048;2023-04-24T03:47:00;2.33;;;1.30;;
10281;SDS011;5186;59.472;18.048;2023-04-24T03:49:26;2.70;;;1.33;;
10281;SDS011;5186;59.472;18.048;2023-04-24T03:51:52;3.00;;;1.30;;
10281;SDS011;5186;59.472;18.048;2023-04-24T03:54:18;3.97;;;1.30;;
10281;SDS011;5186;59.472;18.048;2023-04-24T03:56:44;2.20;;;1.13;;
10281;SDS011;5186;59.472;18.048;2023-04-24T03:59:10;2.60;;;1.53;;
10281;SDS011;5186;59.472;18.048;2023-04-24T04:01:36;2.40;;;1.23;;
10281;SDS011;5186;59.472;18.048;2023-04-24T04:04:02;3.60;;;1.60;;
10281;SDS011;5186;59.472;18.048;2023-04-24T04:06:31;3.57;;;1.60;;
10281;SDS011;5186;59.472;18.048;2023-04-24T04:08:57;3.13;;;1.57;;
10281;SDS011;5186;59.472;18.048;2023-04-24T04:11:23;5.63;;;1.70;;
10281;SDS011;5186;59.472;18.048;2023-04-24T04:13:49;4.07;;;1.53;;
10281;SDS011;5186;59.472;18.048;2023-04-24T04:16:15;3.17;;;1.77;;
10281;SDS011;5186;59.472;18.048;2023-04-24T04:18:42;4.40;;;1.73;;
10281;SDS011;5186;59.472;18.048;2023-04-24T04:21:08;4.67;;;1.87;;
10281;SDS011;5186;59.472;18.048;2023-04-24T04:23:33;3.67;;;1.63;;
10281;SDS011;5186;59.472;18.048;2023-04-24T04:25:59;5.60;;;2.00;;
10281;SDS011;5186;59.472;18.048;2023-04-24T04:28:28;3.63;;;1.80;;
10281;SDS011;5186;59.472;18.048;2023-04-24T04:30:55;4.67;;;2.17;;
10281;SDS011;5186;59.472;18.048;2023-04-24T04:33:22;4.20;;;1.90;;
10281;SDS011;5186;59.472;18.048;2023-04-24T04:35:51;4.07;;;1.63;;
10281;SDS011;5186;59.472;18.048;2023-04-24T04:38:20;3.13;;;1.60;;
10281;SDS011;5186;59.472;18.048;2023-04-24T04:40:48;3.57;;;2.03;;
10281;SDS011;5186;59.472;18.048;2023-04-24T04:43:14;6.60;;;1.90;;
10281;SDS011;5186;59.472;18.048;2023-04-24T04:45:41;4.43;;;2.03;;
10281;SDS011;5186;59.472;18.048;2023-04-24T04:48:08;6.40;;;2.10;;
10281;SDS011;5186;59.472;18.048;2023-04-24T04:50:34;5.60;;;2.03;;
10281;SDS011;5186;59.472;18.048;2023-04-24T04:53:00;4.40;;;2.03;;
10281;SDS011;5186;59.472;18.048;2023-04-24T04:55:26;4.87;;;2.30;;
10281;SDS011;5186;59.472;18.048;2023-04-24T04:57:52;5.83;;;2.00;;
10281;SDS011;5186;59.472;18.048;2023-04-24T05:00:17;3.43;;;2.00;;
10281;SDS011;5186;59.472;18.048;2023-04-24T05:02:44;3.73;;;1.77;;
10281;SDS011;5186;59.472;18.048;2023-04-24T05:05:09;5.47;;;1.80;;
10281;SDS011;5186;59.472;18.048;2023-04-24T05:07:35;2.77;;;1.80;;
10281;SDS011;5186;59.472;18.048;2023-04-24T05:10:01;2.27;;;1.73;;
10281;SDS011;5186;59.472;18.048;2023-04-24T05:12:27;4.83;;;1.67;;
10281;SDS011;5186;59.472;18.048;2023-04-24T05:14:52;4.03;;;1.83;;
10281;SDS011;5186;59.472;18.048;2023-04-24T05:17:18;3.90;;;1.57;;
10281;SDS011;5186;59.472;18.048;2023-04-24T05:19:44;4.20;;;1.80;;
10281;SDS011;5186;59.472;18.048;2023-04-24T05:22:10;5.10;;;1.93;;
10281;SDS011;5186;59.472;18.048;2023-04-24T05:24:36;3.17;;;1.77;;
10281;SDS011;5186;59.472;18.048;2023-04-24T05:27:03;2.97;;;1.53;;
10281;SDS011;5186;59.472;18.048;2023-04-24T05:29:32;3.17;;;1.80;;
10281;SDS011;5186;59.472;18.048;2023-04-24T05:31:58;3.50;;;2.00;;
10281;SDS011;5186;59.472;18.048;2023-04-24T05:34:25;6.07;;;1.90;;
10281;SDS011;5186;59.472;18.048;2023-04-24T05:36:51;4.03;;;1.87;;
10281;SDS011;5186;59.472;18.048;2023-04-24T05:39:17;3.10;;;1.50;;
10281;SDS011;5186;59.472;18.048;2023-04-24T05:41:44;4.57;;;1.57;;
10281;SDS011;5186;59.472;18.048;2023-04-24T05:44:10;2.70;;;1.70;;
10281;SDS011;5186;59.472;18.048;2023-04-24T05:46:36;3.63;;;1.47;;
10281;SDS011;5186;59.472;18.048;2023-04-24T05:49:02;2.80;;;1.67;;
10281;SDS011;5186;59.472;18.048;2023-04-24T05:51:27;3.80;;;1.70;;
10281;SDS011;5186;59.472;18.048;2023-04-24T05:53:53;3.27;;;1.80;;
10281;SDS011;5186;59.472;18.048;2023-04-24T05:56:19;3.43;;;1.90;;
10281;SDS011;5186;59.472;18.048;2023-04-24T05:58:45;4.50;;;2.27;;
10281;SDS011;5186;59.472;18.048;2023-04-24T06:01:11;3.83;;;1.90;;
10281;SDS011;5186;59.472;18.048;2023-04-24T06:03:38;4.27;;;2.30;;
10281;SDS011;5186;59.472;18.048;2023-04-24T06:06:05;4.77;;;2.20;;
10281;SDS011;5186;59.472;18.048;2023-04-24T06:08:31;2.33;;;1.60;;
10281;SDS011;5186;59.472;18.048;2023-04-24T06:10:57;3.23;;;2.20;;
10281;SDS011;5186;59.472;18.048;2023-04-24T06:13:23;4.00;;;1.80;;
10281;SDS011;5186;59.472;18.048;2023-04-24T06:15:49;2.70;;;1.57;;
10281;SDS011;5186;59.472;18.048;2023-04-24T06:18:16;4.67;;;2.33;;
10281;SDS011;5186;59.472;18.048;2023-04-24T06:20:45;7.77;;;2.20;;
10281;SDS011;5186;59.472;18.048;2023-04-24T06:23:11;4.03;;;2.27;;
10281;SDS011;5186;59.472;18.048;2023-04-24T06:25:37;4.03;;;2.03;;
10281;SDS011;5186;59.472;18.048;2023-04-24T06:28:03;2.20;;;1.90;;
10281;SDS011;5186;59.472;18.048;2023-04-24T06:30:29;4.37;;;2.07;;
10281;SDS011;5186;59.472;18.048;2023-04-24T06:32:54;3.40;;;2.00;;
10281;SDS011;5186;59.472;18.048;2023-04-24T06:35:20;3.63;;;2.20;;
10281;SDS011;5186;59.472;18.048;2023-04-24T06:37:45;3.07;;;1.90;;
10281;SDS011;5186;59.472;18.048;2023-04-24T06:40:11;6.17;;;2.00;;
10281;SDS011;5186;59.472;18.048;2023-04-24T06:42:37;5.17;;;1.90;;
10281;SDS011;5186;59.472;18.048;2023-04-24T06:45:03;3.07;;;1.60;;
10281;SDS011;5186;59.472;18.048;2023-04-24T06:47:30;3.17;;;1.43;;
10281;SDS011;5186;59.472;18.048;2023-04-24T06:49:55;3.43;;;1.80;;
10281;SDS011;5186;59.472;18.048;2023-04-24T06:52:22;2.70;;;1.40;;
10281;SDS011;5186;59.472;18.048;2023-04-24T06:54:47;1.57;;;1.30;;
10281;SDS011;5186;59.472;18.048;2023-04-24T06:57:13;4.27;;;1.70;;
10281;SDS011;5186;59.472;18.048;2023-04-24T06:59:39;2.50;;;1.70;;
10281;SDS011;5186;59.472;18.048;2023-04-24T07:02:04;2.67;;;1.60;;
10281;SDS011;5186;59.472;18.048;2023-04-24T07:04:30;3.03;;;1.83;;
10281;SDS011;5186;59.472;18.048;2023-04-24T07:06:56;1.77;;;1.50;;
10281;SDS011;5186;59.472;18.048;2023-04-24T07:09:25;5.70;;;1.60;;
10281;SDS011;5186;59.472;18.048;2023-04-24T07:11:52;4.47;;;1.57;;
10281;SDS011;5186;59.472;18.048;2023-04-24T07:14:18;2.10;;;1.57;;
10281;SDS011;5186;59.472;18.048;2023-04-24T07:16:44;2.73;;;1.33;;
10281;SDS011;5186;59.472;18.048;2023-04-24T07:19:11;4.07;;;2.30;;
10281;SDS011;5186;59.472;18.048;2023-04-24T07:21:37;1.97;;;1.60;;
10281;SDS011;5186;59.472;18.048;2023-04-24T07:24:02;3.07;;;1.60;;
10281;SDS011;5186;59.472;18.048;2023-04-24T07:26:29;5.63;;;1.80;;
10281;SDS011;5186;59.472;18.048;2023-04-24T07:28:55;2.10;;;1.47;;
10281;SDS011;5186;59.472;18.048;2023-04-24T07:31:21;2.30;;;1.67;;
10281;SDS011;5186;59.472;18.048;2023-04-24T07:33:47;3.47;;;1.57;;
10281;SDS011;5186;59.472;18.048;2023-04-24T07:36:13;4.83;;;1.90;;
10281;SDS011;5186;59.472;18.048;2023-04-24T07:38:42;4.03;;;2.67;;
10281;SDS011;5186;59.472;18.048;2023-04-24T07:41:08;2.83;;;1.90;;
10281;SDS011;5186;59.472;18.048;2023-04-24T07:43:34;2.23;;;1.80;;
10281;SDS011;5186;59.472;18.048;2023-04-24T07:46:00;2.47;;;1.90;;
10281;SDS011;5186;59.472;18.048;2023-04-24T07:48:25;3.57;;;2.00;;
10281;SDS011;5186;59.472;18.048;2023-04-24T07:50:51;3.83;;;1.80;;
10281;SDS011;5186;59.472;18.048;2023-04-24T07:53:17;2.97;;;2.10;;
10281;SDS011;5186;59.472;18.048;2023-04-24T07:55:43;2.70;;;1.67;;
10281;SDS011;5186;59.472;18.048;2023-04-24T07:58:08;3.73;;;2.10;;
10281;SDS011;5186;59.472;18.048;2023-04-24T08:00:34;4.77;;;2.00;;
10281;SDS011;5186;59.472;18.048;2023-04-24T08:03:00;2.63;;;2.40;;
10281;SDS011;5186;59.472;18.048;2023-04-24T08:05:26;4.63;;;2.30;;
10281;SDS011;5186;59.472;18.048;2023-04-24T08:07:53;4.60;;;2.50;;
10281;SDS011;5186;59.472;18.048;2023-04-24T08:10:19;3.80;;;2.50;;
10281;SDS011;5186;59.472;18.048;2023-04-24T08:12:46;3.03;;;2.20;;
10281;SDS011;5186;59.472;18.048;2023-04-24T08:15:11;2.80;;;1.80;;
10281;SDS011;5186;59.472;18.048;2023-04-24T08:17:37;2.97;;;2.20;;
10281;SDS011;5186;59.472;18.048;2023-04-24T08:20:03;2.37;;;1.93;;
10281;SDS011;5186;59.472;18.048;2023-04-24T08:22:30;2.63;;;2.10;;
10281;SDS011;5186;59.472;18.048;2023-04-24T08:24:56;3.43;;;1.90;;
10281;SDS011;5186;59.472;18.048;2023-04-24T08:27:23;2.17;;;1.80;;
10281;SDS011;5186;59.472;18.048;2023-04-24T08:29:49;3.60;;;2.23;;
10281;SDS011;5186;59.472;18.048;2023-04-24T08:32:15;2.73;;;2.40;;
10281;SDS011;5186;59.472;18.048;2023-04-24T08:34:41;3.37;;;2.60;;
10281;SDS011;5186;59.472;18.048;2023-04-24T08:37:07;3.23;;;2.20;;
10281;SDS011;5186;59.472;18.048;2023-04-24T08:39:32;3.03;;;2.50;;
10281;SDS011;5186;59.472;18.048;2023-04-24T08:41:58;3.23;;;2.30;;
10281;SDS011;5186;59.472;18.048;2023-04-24T08:44:30;5.60;;;2.60;;
10281;SDS011;5186;59.472;18.048;2023-04-24T08:46:57;6.87;;;2.10;;
10281;SDS011;5186;59.472;18.048;2023-04-24T08:49:23;5.47;;;1.90;;
10281;SDS011;5186;59.472;18.048;2023-04-24T08:51:50;2.80;;;1.93;;
10281;SDS011;5186;59.472;18.048;2023-04-24T08:54:18;3.77;;;2.13;;
10281;SDS011;5186;59.472;18.048;2023-04-24T08:56:44;2.50;;;2.17;;
10281;SDS011;5186;59.472;18.048;2023-04-24T08:59:11;2.17;;;1.90;;
10281;SDS011;5186;59.472;18.048;2023-04-24T09:01:37;2.87;;;2.00;;
10281;SDS011;5186;59.472;18.048;2023-04-24T09:04:04;2.30;;;1.70;;
10281;SDS011;5186;59.472;18.048;2023-04-24T09:06:34;2.63;;;2.07;;
10281;SDS011;5186;59.472;18.048;2023-04-24T09:09:01;2.40;;;1.70;;
10281;SDS011;5186;59.472;18.048;2023-04-24T09:11:28;2.27;;;1.60;;
10281;SDS011;5186;59.472;18.048;2023-04-24T09:13:55;2.23;;;1.63;;
10281;SDS011;5186;59.472;18.048;2023-04-24T09:16:21;3.67;;;1.80;;
10281;SDS011;5186;59.472;18.048;2023-04-24T09:18:49;2.00;;;1.60;;
10281;SDS011;5186;59.472;18.048;2023-04-24T09:21:15;4.60;;;1.60;;
10281;SDS011;5186;59.472;18.048;2023-04-24T09:23:40;2.07;;;1.60;;
10281;SDS011;5186;59.472;18.048;2023-04-24T09:26:06;2.00;;;1.50;;
10281;SDS011;5186;59.472;18.048;2023-04-24T09:28:37;1.90;;;1.50;;
10281;SDS011;5186;59.472;18.048;2023-04-24T09:31:05;2.73;;;1.40;;
10281;SDS011;5186;59.472;18.048;2023-04-24T09:33:39;2.83;;;1.60;;
10281;SDS011;5186;59.472;18.048;2023-04-24T09:36:05;2.10;;;1.53;;
10281;SDS011;5186;59.472;18.048;2023-04-24T09:38:32;2.37;;;1.50;;
10281;SDS011;5186;59.472;18.048;2023-04-24T09:41:13;2.60;;;1.70;;
10281;SDS011;5186;59.472;18.048;2023-04-24T09:43:39;2.03;;;1.67;;
10281;SDS011;5186;59.472;18.048;2023-04-24T09:46:06;2.27;;;1.60;;
10281;SDS011;5186;59.472;18.048;2023-04-24T09:48:34;2.30;;;1.43;;
10281;SDS011;5186;59.472;18.048;2023-04-24T09:51:01;3.77;;;1.67;;
10281;SDS011;5186;59.472;18.048;2023-04-24T09:53:29;1.97;;;1.50;;
10281;SDS011;5186;59.472;18.048;2023-04-24T09:55:55;1.67;;;1.40;;
10281;SDS011;5186;59.472;18.048;2023-04-24T09:58:25;2.60;;;1.40;;
10281;SDS011;5186;59.472;18.048;2023-04-24T10:00:54;2.70;;;1.70;;
10281;SDS011;5186;59.472;18.048;2023-04-24T10:03:21;2.53;;;1.67;;
10281;SDS011;5186;59.472;18.048;2023-04-24T10:05:51;3.03;;;1.80;;
10281;SDS011;5186;59.472;18.048;2023-04-24T10:08:17;3.37;;;1.93;;
10281;SDS011;5186;59.472;18.048;2023-04-24T10:10:45;3.17;;;1.80;;
10281;SDS011;5186;59.472;18.048;2023-04-24T10:13:12;2.23;;;1.60;;
10281;SDS011;5186;59.472;18.048;2023-04-24T10:15:40;3.80;;;1.70;;
10281;SDS011;5186;59.472;18.048;2023-04-24T10:18:06;2.37;;;1.60;;
10281;SDS011;5186;59.472;18.048;2023-04-24T10:20:34;1.90;;;1.60;;
10281;SDS011;5186;59.472;18.048;2023-04-24T10:23:01;1.77;;;1.67;;
10281;SDS011;5186;59.472;18.048;2023-04-24T10:25:32;5.13;;;2.10;;
10281;SDS011;5186;59.472;18.048;2023-04-24T10:27:59;2.40;;;2.00;;
10281;SDS011;5186;59.472;18.048;2023-04-24T10:30:27;2.53;;;1.83;;
10281;SDS011;5186;59.472;18.048;2023-04-24T10:32:54;3.17;;;1.53;;
10281;SDS011;5186;59.472;18.048;2023-04-24T10:35:20;3.63;;;1.60;;
10281;SDS011;5186;59.472;18.048;2023-04-24T10:37:50;2.40;;;1.53;;
10281;SDS011;5186;59.472;18.048;2023-04-24T10:40:25;1.93;;;1.70;;
10281;SDS011;5186;59.472;18.048;2023-04-24T10:42:54;2.27;;;2.07;;
10281;SDS011;5186;59.472;18.048;2023-04-24T10:45:21;4.23;;;1.67;;
10281;SDS011;5186;59.472;18.048;2023-04-24T10:48:04;3.53;;;2.00;;
10281;SDS011;5186;59.472;18.048;2023-04-24T10:50:43;2.17;;;1.50;;
10281;SDS011;5186;59.472;18.048;2023-04-24T10:53:17;2.37;;;1.70;;
10281;SDS011;5186;59.472;18.048;2023-04-24T10:55:49;2.57;;;1.60;;
10281;SDS011;5186;59.472;18.048;2023-04-24T10:58:41;2.47;;;1.80;;
10281;SDS011;5186;59.472;18.048;2023-04-24T11:01:31;2.37;;;1.77;;
10281;SDS011;5186;59.472;18.048;2023-04-24T11:04:01;2.60;;;1.40;;
10281;SDS011;5186;59.472;18.048;2023-04-24T11:06:31;3.17;;;1.53;;
10281;SDS011;5186;59.472;18.048;2023-04-24T11:09:04;1.70;;;1.50;;
10281;SDS011;5186;59.472;18.048;2023-04-24T11:11:35;1.63;;;1.50;;
10281;SDS011;5186;59.472;18.048;2023-04-24T11:14:08;2.10;;;1.40;;
10281;SDS011;5186;59.472;18.048;2023-04-24T11:19:17;2.33;;;1.70;;
10281;SDS011;5186;59.472;18.048;2023-04-24T11:21:53;2.90;;;1.97;;
10281;SDS011;5186;59.472;18.048;2023-04-24T11:27:13;4.10;;;1.80;;
10281;SDS011;5186;59.472;18.048;2023-04-24T11:35:00;2.00;;;1.80;;
10281;SDS011;5186;59.472;18.048;2023-04-24T11:37:27;5.93;;;1.80;;
10281;SDS011;5186;59.472;18.048;2023-04-24T11:39:55;3.57;;;1.67;;
10281;SDS011;5186;59.472;18.048;2023-04-24T11:42:22;2.80;;;1.70;;
10281;SDS011;5186;59.472;18.048;2023-04-24T11:44:49;3.17;;;1.80;;
10281;SDS011;5186;59.472;18.048;2023-04-24T11:47:16;2.70;;;2.00;;
10281;SDS011;5186;59.472;18.048;2023-04-24T11:49:42;2.23;;;2.00;;
10281;SDS011;5186;59.472;18.048;2023-04-24T11:52:08;2.27;;;1.77;;
10281;SDS011;5186;59.472;18.048;2023-04-24T11:54:33;2.13;;;1.90;;
10281;SDS011;5186;59.472;18.048;2023-04-24T11:56:59;3.97;;;1.90;;
10281;SDS011;5186;59.472;18.048;2023-04-24T11:59:29;2.03;;;1.83;;
10281;SDS011;5186;59.472;18.048;2023-04-24T12:01:59;3.10;;;2.00;;
10281;SDS011;5186;59.472;18.048;2023-04-24T12:04:25;3.40;;;1.97;;
10281;SDS011;5186;59.472;18.048;2023-04-24T12:07:03;2.37;;;1.73;;
10281;SDS011;5186;59.472;18.048;2023-04-24T12:10:06;3.60;;;2.23;;
10281;SDS011;5186;59.472;18.048;2023-04-24T12:12:26;4.33;;;2.00;;
10281;SDS011;5186;59.472;18.048;2023-04-24T12:14:53;3.60;;;2.23;;
10281;SDS011;5186;59.472;18.048;2023-04-24T12:17:28;2.57;;;1.93;;
10281;SDS011;5186;59.472;18.048;2023-04-24T12:20:06;5.27;;;1.90;;
10281;SDS011;5186;59.472;18.048;2023-04-24T12:22:53;2.40;;;2.17;;
10281;SDS011;5186;59.472;18.048;2023-04-24T12:25:20;3.23;;;2.27;;
10281;SDS011;5186;59.472;18.048;2023-04-24T12:27:52;4.10;;;2.20;;
10281;SDS011;5186;59.472;18.048;2023-04-24T12:30:20;3.13;;;2.53;;
10281;SDS011;5186;59.472;18.048;2023-04-24T12:32:47;5.47;;;2.43;;
10281;SDS011;5186;59.472;18.048;2023-04-24T12:35:18;3.83;;;2.40;;
10281;SDS011;5186;59.472;18.048;2023-04-24T12:37:45;4.33;;;2.23;;
10281;SDS011;5186;59.472;18.048;2023-04-24T12:40:11;4.83;;;2.70;;
10281;SDS011;5186;59.472;18.048;2023-04-24T12:42:45;4.13;;;2.50;;
10281;SDS011;5186;59.472;18.048;2023-04-24T12:45:12;4.10;;;2.63;;
10281;SDS011;5186;59.472;18.048;2023-04-24T12:47:38;3.50;;;2.40;;
10281;SDS011;5186;59.472;18.048;2023-04-24T12:50:05;7.47;;;2.80;;
10281;SDS011;5186;59.472;18.048;2023-04-24T12:52:35;2.77;;;2.40;;
10281;SDS011;5186;59.472;18.048;2023-04-24T12:55:01;5.53;;;2.63;;
10281;SDS011;5186;59.472;18.048;2023-04-24T12:57:28;5.23;;;2.70;;
10281;SDS011;5186;59.472;18.048;2023-04-24T12:59:55;4.50;;;2.67;;
10281;SDS011;5186;59.472;18.048;2023-04-24T13:02:24;3.63;;;2.33;;
10281;SDS011;5186;59.472;18.048;2023-04-24T13:04:51;3.10;;;2.27;;
10281;SDS011;5186;59.472;18.048;2023-04-24T13:07:17;4.40;;;3.13;;
10281;SDS011;5186;59.472;18.048;2023-04-24T13:09:43;2.83;;;2.40;;
10281;SDS011;5186;59.472;18.048;2023-04-24T13:12:10;3.47;;;2.50;;
10281;SDS011;5186;59.472;18.048;2023-04-24T13:14:36;5.57;;;2.43;;
10281;SDS011;5186;59.472;18.048;2023-04-24T13:17:02;3.77;;;2.10;;
10281;SDS011;5186;59.472;18.048;2023-04-24T13:19:29;2.50;;;2.30;;
10281;SDS011;5186;59.472;18.048;2023-04-24T13:21:55;4.87;;;2.70;;
10281;SDS011;5186;59.472;18.048;2023-04-24T13:24:25;5.43;;;2.30;;
10281;SDS011;5186;59.472;18.048;2023-04-24T13:26:51;4.83;;;2.73;;
10281;SDS011;5186;59.472;18.048;2023-04-24T13:29:17;5.87;;;2.60;;
10281;SDS011;5186;59.472;18.048;2023-04-24T13:31:43;8.40;;;2.73;;
10281;SDS011;5186;59.472;18.048;2023-04-24T13:34:09;2.70;;;2.00;;
10281;SDS011;5186;59.472;18.048;2023-04-24T13:36:35;2.53;;;2.13;;
10281;SDS011;5186;59.472;18.048;2023-04-24T13:39:01;3.10;;;2.20;;
10281;SDS011;5186;59.472;18.048;2023-04-24T13:41:29;3.57;;;2.37;;
10281;SDS011;5186;59.472;18.048;2023-04-24T13:43:55;4.30;;;2.27;;
10281;SDS011;5186;59.472;18.048;2023-04-24T13:46:20;4.57;;;2.50;;
10281;SDS011;5186;59.472;18.048;2023-04-24T13:48:46;4.30;;;2.30;;
10281;SDS011;5186;59.472;18.048;2023-04-24T13:51:12;3.27;;;2.23;;
10281;SDS011;5186;59.472;18.048;2023-04-24T13:53:37;3.97;;;2.40;;
10281;SDS011;5186;59.472;18.048;2023-04-24T13:56:04;4.50;;;2.30;;
10281;SDS011;5186;59.472;18.048;2023-04-24T13:58:30;3.37;;;2.13;;
10281;SDS011;5186;59.472;18.048;2023-04-24T14:00:57;3.43;;;2.17;;
10281;SDS011;5186;59.472;18.048;2023-04-24T14:03:23;4.10;;;2.27;;
10281;SDS011;5186;59.472;18.048;2023-04-24T14:05:48;3.40;;;2.37;;
10281;SDS011;5186;59.472;18.048;2023-04-24T14:08:14;3.73;;;2.13;;
10281;SDS011;5186;59.472;18.048;2023-04-24T14:10:39;3.10;;;2.27;;
10281;SDS011;5186;59.472;18.048;2023-04-24T14:13:05;4.23;;;3.00;;
10281;SDS011;5186;59.472;18.048;2023-04-24T14:15:31;4.43;;;2.50;;
10281;SDS011;5186;59.472;18.048;2023-04-24T14:17:57;4.03;;;2.90;;
10281;SDS011;5186;59.472;18.048;2023-04-24T14:20:22;3.90;;;3.27;;
10281;SDS011;5186;59.472;18.048;2023-04-24T14:22:48;4.53;;;2.47;;
10281;SDS011;5186;59.472;18.048;2023-04-24T14:25:14;3.00;;;2.67;;
10281;SDS011;5186;59.472;18.048;2023-04-24T14:27:40;2.70;;;2.50;;
10281;SDS011;5186;59.472;18.048;2023-04-24T14:30:06;4.10;;;2.43;;
10281;SDS011;5186;59.472;18.048;2023-04-24T14:32:32;4.33;;;2.87;;
10281;SDS011;5186;59.472;18.048;2023-04-24T14:35:01;3.87;;;3.13;;
10281;SDS011;5186;59.472;18.048;2023-04-24T14:37:26;4.37;;;2.50;;
10281;SDS011;5186;59.472;18.048;2023-04-24T14:39:52;9.43;;;3.17;;
10281;SDS011;5186;59.472;18.048;2023-04-24T14:42:17;7.43;;;2.90;;
10281;SDS011;5186;59.472;18.048;2023-04-24T14:44:43;4.60;;;2.93;;
10281;SDS011;5186;59.472;18.048;2023-04-24T14:47:09;4.00;;;2.63;;
10281;SDS011;5186;59.472;18.048;2023-04-24T14:49:34;3.60;;;2.73;;
10281;SDS011;5186;59.472;18.048;2023-04-24T14:52:00;4.13;;;2.77;;
10281;SDS011;5186;59.472;18.048;2023-04-24T14:54:27;5.03;;;2.73;;
10281;SDS011;5186;59.472;18.048;2023-04-24T14:56:55;2.67;;;2.47;;